Time;durP1;ratioP1;P1;durP2;ratioP2;P2;SDS_P1;SDS_P2;PMS_P1;PMS_P2;Temp;Humidity;BMP_temperature;BMP_pressure;BME280_temperature;BME280_humidity;BME280_pressure;Samples;Min_cycle;Max_cycle;Signal;HPM_P1;HPM_P2
2023/01/21 00:01:48;;;;;;;;;;;;;;;;;;5076966;28;19927;-69
2023/01/21 00:04:13;;;;;;;;;;;1.10;99.90;;;;;;5077216;28;19919;-69
2023/01/21 00:06:39;;;;;;;;;;;1.00;99.90;;;;;;5076535;28;20388;-69
2023/01/21 00:09:05;;;;;;;;;;;;;;;;;;5095218;28;19924;-69
2023/01/21 00:11:31;;;;;;;;;;;;;;;;;;5076964;28;19920;-69
2023/01/21 00:13:56;;;;;;;;;;;;;;;;;;5076958;28;19947;-70
2023/01/21 00:16:22;;;;;;;;;;;0.90;99.90;;;;;;5094745;28;20701;-69
2023/01/21 00:18:47;;;;;;;;;;;0.90;99.90;;;;;;5076821;28;19920;-70
2023/01/21 00:21:13;;;;;;;;;;;;;;;;;;5076686;28;19920;-69
2023/01/21 00:23:39;;;;;;;;;;;;;;;;;;5076595;28;20297;-69
2023/01/21 00:26:05;;;;;;;;;;;;;;;;;;5076111;28;19927;-69
2023/01/21 00:28:31;;;;;;;;;;;;;;;;;;5076544;28;19920;-69
2023/01/21 00:31:01;;;;;;;;;;;0.50;99.90;;;;;;5076426;28;20403;-69
2023/01/21 00:33:27;;;;;;;;;;;0.70;99.90;;;;;;5076761;28;19924;-71
2023/01/21 00:35:59;;;;;;;;;;;0.70;99.90;;;;;;5094039;28;20335;-69
2023/01/21 00:38:25;;;;;;;;;;;0.60;99.90;;;;;;5094501;28;19966;-69
2023/01/21 00:40:51;;;;;;;;;;;;;;;;;;5076448;28;19920;-70
2023/01/21 00:43:16;;;;;;;;;;;;;;;;;;5076337;28;19924;-69
2023/01/21 00:45:42;;;;;;;;;;;;;;;;;;5075976;28;19920;-69
2023/01/21 00:48:08;;;;;;;;;;;;;;;;;;5076028;28;20398;-69
2023/01/21 00:50:34;;;;;;;;;;;0.60;99.90;;;;;;5094487;28;19943;-69
2023/01/21 00:52:59;;;;;;;;;;;0.60;99.90;;;;;;5094409;28;19927;-69
2023/01/21 00:55:25;;;;;;;;;;;;;;;;;;5093890;28;19979;-69
2023/01/21 00:57:52;;;;;;;;;;;;;;;;;;5094088;28;20409;-69
2023/01/21 01:00:18;;;;;;;;;;;;;;;;;;5092861;28;20316;-69
2023/01/21 01:02:44;;;;;;;;;;;;;;;;;;5094124;28;19920;-69
2023/01/21 01:05:10;;;;;;;;;;;;;;;;;;5093948;28;20415;-69
2023/01/21 01:07:36;;;;;;;;;;;;;;;;;;5075755;28;20421;-70
2023/01/21 01:10:01;;;;;;;;;;;0.40;99.90;;;;;;5075708;28;19953;-70
2023/01/21 01:12:27;;;;;;;;;;;0.30;99.90;;;;;;5075684;28;19924;-70
2023/01/21 01:14:53;;;;;;;;;;;0.40;99.90;;;;;;5075324;28;19931;-69
2023/01/21 01:17:18;;;;;;;;;;;;;;;;;;5075171;28;19951;-69
2023/01/21 01:19:44;;;;;;;;;;;;;;;;;;5075665;28;19924;-69
2023/01/21 01:22:10;;;;;;;;;;;0.30;99.90;;;;;;5093794;28;20446;-69
2023/01/21 01:24:36;;;;;;;;;;;;;;;;;;5075448;28;19924;-69
2023/01/21 01:27:01;;;;;;;;;;;0.20;99.90;;;;;;5093078;28;19920;-69
2023/01/21 01:29:27;;;;;;;;;;;;;;;;;;5058682;28;20377;-69
2023/01/21 01:31:53;;;;;;;;;;;;;;;;;;5093262;28;20207;-69
2023/01/21 01:34:19;;;;;;;;;;;;;;;;;;5075004;28;19924;-69
2023/01/21 01:36:44;;;;;;;;;;;0.20;99.90;;;;;;5058104;28;19920;-70
2023/01/21 01:39:10;;;;;;;;;;;0.10;99.90;;;;;;5058519;28;19942;-70
2023/01/21 01:41:35;;;;;;;;;;;0.00;99.90;;;;;;5075459;28;20296;-69
2023/01/21 01:44:05;;;;;;;;;;;0.10;99.90;;;;;;5075118;28;19920;-69
2023/01/21 01:46:32;;;;;;;;;;;0.10;99.90;;;;;;5074478;28;19920;-69
2023/01/21 01:49:00;;;;;;;;;;;0.00;99.90;;;;;;5074969;28;19920;-69
2023/01/21 01:51:26;;;;;;;;;;;;;;;;;;5093178;28;19959;-70
2023/01/21 01:53:52;;;;;;;;;;;;;;;;;;5074800;28;19920;-69
2023/01/21 01:56:18;;;;;;;;;;;;;;;;;;5057707;28;19967;-69
2023/01/21 01:58:44;;;;;;;;;;;;;;;;;;5074704;28;20254;-69
2023/01/21 02:01:10;;;;;;;;;;;;;;;;;;5074530;28;19927;-69
2023/01/21 02:03:45;;;;;;;;;;;;;;;;;;5074678;28;19920;-69
2023/01/21 02:06:11;;;;;;;;;;;;;;;;;;5057596;28;19943;-69
2023/01/21 02:08:37;;;;;;;;;;;;;;;;;;5092721;28;20405;-69
2023/01/21 02:11:02;;;;;;;;;;;;;;;;;;5092545;28;19930;-69
2023/01/21 02:13:28;;;;;;;;;;;;;;;;;;5074250;28;19928;-69
2023/01/21 02:15:54;;;;;;;;;;;;;;;;;;5092098;28;20415;-70
2023/01/21 02:18:20;;;;;;;;;;;;;;;;;;5074373;28;19971;-69
2023/01/21 02:20:46;;;;;;;;;;;;;;;;;;5074451;28;20019;-69
2023/01/21 02:23:12;;;;;;;;;;;;;;;;;;5074348;28;19920;-69
2023/01/21 02:25:39;;;;;;;;;;;;;;;;;;5092395;28;19967;-69
2023/01/21 02:28:05;;;;;;;;;;;;;;;;;;5074197;28;19927;-69
2023/01/21 02:30:31;;;;;;;;;;;;;;;;;;5092724;28;19920;-69
2023/01/21 02:32:57;;;;;;;;;;;;;;;;;;5074293;28;20522;-70
2023/01/21 02:35:22;;;;;;;;;;;;;;;;;;5073957;28;19924;-69
2023/01/21 02:37:48;;;;;;;;;;;;;;;;;;5092331;28;19966;-69
2023/01/21 02:40:14;;;;;;;;;;;;;;;;;;5074368;28;20347;-69
2023/01/21 02:42:40;;;;;;;;;;;;;;;;;;5073632;28;19927;-69
2023/01/21 02:45:06;;;;;;;;;;;;;;;;;;5074239;28;19955;-69
2023/01/21 02:47:32;;;;;;;;;;;;;;;;;;5073901;28;20460;-69
2023/01/21 02:49:58;;;;;;;;;;;;;;;;;;5092351;28;19920;-69
2023/01/21 02:52:24;;;;;;;;;;;;;;;;;;5057304;28;19920;-69
2023/01/21 02:54:50;;;;;;;;;;;;;;;;;;5092017;28;20382;-69
2023/01/21 02:57:15;;;;;;;;;;;;;;;;;;5073666;28;19920;-69
2023/01/21 02:59:41;;;;;;;;;;;;;;;;;;5057278;28;19970;-69
2023/01/21 03:02:07;;;;;;;;;;;;;;;;;;5074017;28;20057;-69
2023/01/21 03:04:33;;;;;;;;;;;;;;;;;;5073946;28;20448;-69
2023/01/21 03:06:59;;;;;;;;;;;;;;;;;;5073512;28;19926;-69
2023/01/21 03:09:25;;;;;;;;;;;;;;;;;;5074017;28;19931;-69
2023/01/21 03:11:51;;;;;;;;;;;;;;;;;;5073849;28;19920;-69
2023/01/21 03:17:01;;;;;;;;;;;;;;;;;;5073521;28;20054;-69
2023/01/21 03:19:27;;;;;;;;;;;;;;;;;;5073766;28;19981;-69
2023/01/21 03:21:53;;;;;;;;;;;;;;;;;;5073778;28;19931;-69
2023/01/21 03:24:19;;;;;;;;;;;;;;;;;;5058711;28;19949;-69
2023/01/21 03:26:45;;;;;;;;;;;;;;;;;;5077198;28;20010;-70
2023/01/21 03:29:11;;;;;;;;;;;;;;;;;;5095875;28;20381;-70
2023/01/21 03:31:37;;;;;;;;;;;;;;;;;;5077624;28;19924;-69
2023/01/21 03:34:03;;;;;;;;;;;;;;;;;;5095626;28;19924;-69
2023/01/21 03:36:29;;;;;;;;;;;;;;;;;;5077511;28;20373;-70
2023/01/21 03:38:54;;;;;;;;;;;;;;;;;;5077680;28;19926;-70
2023/01/21 03:41:20;;;;;;;;;;;;;;;;;;5093793;28;19924;-70
2023/01/21 03:43:46;;;;;;;;;;;;;;;;;;5097957;28;19921;-70
2023/01/21 03:46:12;;;;;;;;;;;;;;;;;;5097466;28;19919;-69
2023/01/21 03:48:38;;;;;;;;;;;;;;;;;;5097665;28;19921;-69
2023/01/21 03:51:04;;;;;;;;;;;;;;;;;;5115982;28;19967;-70
2023/01/21 03:53:30;;;;;;;;;;;;;;;;;;5097634;28;20010;-70
2023/01/21 03:55:57;;;;;;;;;;;;;;;;;;5097085;28;19924;-70
2023/01/21 03:58:23;;;;;;;;;;;;;;;;;;5097749;28;19923;-70
2023/01/21 04:00:49;;;;;;;;;;;;;;;;;;5115802;28;19920;-70
2023/01/21 04:03:15;;;;;;;;;;;;;;;;;;5097340;28;19920;-70
2023/01/21 04:05:41;;;;;;;;;;;;;;;;;;5080084;28;20014;-70
2023/01/21 04:08:07;;;;;;;;;;;;;;;;;;5097181;28;20452;-70
2023/01/21 04:10:33;;;;;;;;;;;;;;;;;;5115528;28;19919;-69
2023/01/21 04:12:59;;;;;;;;;;;;;;;;;;5097175;28;19919;-70
2023/01/21 04:15:25;;;;;;;;;;;;;;;;;;5115134;28;20296;-70
2023/01/21 04:17:51;;;;;;;;;;;;;;;;;;5097068;28;19964;-70
2023/01/21 04:20:18;;;;;;;;;;;;;;;;;;5097082;28;20300;-70
2023/01/21 04:22:44;;;;;;;;;;;;;;;;;;5080102;28;19920;-70
2023/01/21 04:25:10;;;;;;;;;;;;;;;;;;5096627;28;19926;-69
2023/01/21 04:27:35;;;;;;;;;;;;;;;;;;5096560;28;20385;-71
2023/01/21 04:30:01;;;;;;;;;;;;;;;;;;5107019;22;20043;-69
2023/01/21 04:32:27;;;;;;;;;;;;;;;;;;5076347;28;19931;-69
2023/01/21 04:34:53;;;;;;;;;;;;;;;;;;5075944;28;19924;-70
2023/01/21 04:37:19;;;;;;;;;;;;;;;;;;5075920;28;19927;-69
2023/01/21 04:39:45;;;;;;;;;;;;;;;;;;5076096;28;19920;-69
2023/01/21 04:42:11;;;;;;;;;;;;;;;;;;5076094;28;20331;-68
2023/01/21 04:44:37;;;;;;;;;;;;;;;;;;5094386;28;19931;-69
2023/01/21 04:47:02;;;;;;;;;;;;;;;;;;5075979;28;19978;-69
2023/01/21 04:49:28;;;;;;;;;;;;;;;;;;5075864;28;20465;-69
2023/01/21 04:51:54;;;;;;;;;;;;;;;;;;5076161;28;19924;-69
2023/01/21 04:54:20;;;;;;;;;;;;;;;;;;5076037;28;19924;-70
2023/01/21 04:56:46;;;;;;;;;;;;;;;;;;5058864;28;19966;-70
2023/01/21 04:59:12;;;;;;;;;;;;;;;;;;5094034;28;19920;-69
2023/01/21 05:01:38;;;;;;;;;;;;;;;;;;5075884;28;20317;-69
2023/01/21 05:04:04;;;;;;;;;;;;;;;;;;5075504;28;20405;-69
2023/01/21 05:06:30;;;;;;;;;;;;;;;;;;5075399;28;19920;-69
2023/01/21 05:08:56;;;;;;;;;;;;;;;;;;5075685;28;19921;-69
2023/01/21 05:11:21;;;;;;;;;;;;;;;;;;5075891;28;20293;-70
2023/01/21 05:13:47;;;;;;;;;;;;;;;;;;5075713;28;19927;-69
2023/01/21 05:16:13;;;;;;;;;;;;;;;;;;5058716;28;19920;-71
2023/01/21 05:18:39;;;;;;;;;;;;;;;;;;5075552;28;20266;-69
2023/01/21 05:21:05;;;;;;;;;;;;;;;;;;5093716;28;19916;-69
2023/01/21 05:23:31;;;;;;;;;;;;;;;;;;5075264;28;20023;-69
2023/01/21 05:25:57;;;;;;;;;;;;;;;;;;5075213;28;19920;-69
2023/01/21 05:28:23;;;;;;;;;;;;;;;;;;5075223;28;19920;-69
2023/01/21 05:30:49;;;;;;;;;;;;;;;;;;5058709;28;20385;-69
2023/01/21 05:33:15;;;;;;;;;;;;;;;;;;5093286;28;19927;-70
2023/01/21 05:35:41;;;;;;;;;;;;;;;;;;5074867;28;19924;-70
2023/01/21 05:38:07;;;;;;;;;;;;;;;;;;5074963;28;19955;-69
2023/01/21 05:40:32;;;;;;;;;;;;;;;;;;5093290;28;20023;-69
2023/01/21 05:42:58;;;;;;;;;;;;;;;;;;5093096;28;19920;-69
2023/01/21 05:45:24;;;;;;;;;;;;;;;;;;5074650;28;20420;-69
2023/01/21 05:47:50;;;;;;;;;;;;;;;;;;5057376;28;19920;-69
2023/01/21 05:50:16;;;;;;;;;;;;;;;;;;5075081;28;19920;-69
2023/01/21 05:52:42;;;;;;;;;;;;;;;;;;5092976;28;19920;-69
2023/01/21 05:55:08;;;;;;;;;;;;;;;;;;5057836;28;19924;-69
2023/01/21 05:57:34;;;;;;;;;;;;;;;;;;5074583;28;19931;-70
2023/01/21 06:00:00;;;;;;;;;;;;;;;;;;5092731;28;19920;-69
2023/01/21 06:02:26;;;;;;;;;;;;;;;;;;5074795;28;19927;-68
2023/01/21 06:04:52;;;;;;;;;;;;;;;;;;5074501;28;20400;-69
2023/01/21 06:07:17;;;;;;;;;;;;;;;;;;5074319;28;20358;-69
2023/01/21 06:09:43;;;;;;;;;;;;;;;;;;5092634;28;19920;-69
2023/01/21 06:12:09;;;;;;;;;;;;;;;;;;5092685;28;19928;-69
2023/01/21 06:14:35;;;;;;;;;;;;;;;;;;5074302;28;19971;-69
2023/01/21 06:17:01;;;;;;;;;;;;;;;;;;5074276;28;19923;-70
2023/01/21 06:19:27;;;;;;;;;;;;;;;;;;5074520;28;19920;-69
2023/01/21 06:21:53;;;;;;;;;;;;;;;;;;5074561;28;19974;-69
2023/01/21 06:24:19;;;;;;;;;;;;;;;;;;5068769;28;20035;-69
2023/01/21 06:26:45;;;;;;;;;;;;;;;;;;5092163;28;19966;-68
2023/01/21 06:29:11;;;;;;;;;;;;;;;;;;5090849;28;19920;-68
2023/01/21 06:31:38;;;;;;;;;;;;;;;;;;5092224;28;20454;-68
2023/01/21 06:34:04;;;;;;;;;;;;;;;;;;5090945;28;19967;-67
2023/01/21 06:36:29;;;;;;;;;;;;;;;;;;5090627;28;19970;-67
2023/01/21 06:38:55;;;;;;;;;;;;;;;;;;5074293;28;20027;-68
2023/01/21 06:41:21;;;;;;;;;;;;;;;;;;5092205;28;19921;-68
2023/01/21 06:43:47;;;;;;;;;;;;;;;;;;5090839;28;19920;-67
2023/01/21 06:46:13;;;;;;;;;;;;;;;;;;5090424;28;19924;-68
2023/01/21 06:48:39;;;;;;;;;;;;;;;;;;5073954;28;20352;-68
2023/01/21 06:51:05;;;;;;;;;;;;;;;;;;5090798;28;19943;-67
2023/01/21 06:53:31;;;;;;;;;;;;;;;;;;5092188;28;19920;-68
2023/01/21 06:55:57;;;;;;;;;;;;;;;;;;5091722;28;19924;-68
2023/01/21 06:58:23;;;;;;;;;;;;;;;;;;5092681;28;19927;-68
2023/01/21 07:00:49;;;;;;;;;;;;;;;;;;5094896;28;20389;-67
2023/01/21 07:03:15;;;;;;;;;;;;;;;;;;5096603;28;19923;-68
2023/01/21 07:05:40;;;;;;;;;;;;;;;;;;5094693;28;19920;-68
2023/01/21 07:08:06;;;;;;;;;;;;;;;;;;5077833;28;20304;-69
2023/01/21 07:10:32;;;;;;;;;;;;;;;;;;5094617;28;19928;-68
2023/01/21 07:12:58;;;;;;;;;;;;;;;;;;5095927;28;19966;-68
2023/01/21 07:15:24;;;;;;;;;;;;;;;;;;5094329;28;20384;-66
2023/01/21 07:17:52;;;;;;;;;;;;;;;;;;5094728;28;19924;-68
2023/01/21 07:20:18;;;;;;;;;;;;;;;;;;5077664;28;19969;-68
2023/01/21 07:22:44;;;;;;;;;;;;;;;;;;5094481;28;19958;-68
2023/01/21 07:25:10;;;;;;;;;;;;;;;;;;5095653;28;19992;-68
2023/01/21 07:27:36;;;;;;;;;;;;;;;;;;5086767;28;20400;-69
2023/01/21 07:30:02;;;;;;;;;;;;;;;;;;5083778;28;20004;-70
2023/01/21 07:32:28;;;;;;;;;;;;;;;;;;5056499;28;19968;-68
2023/01/21 07:34:54;;;;;;;;;;;;;;;;;;5077474;28;19935;-68
2023/01/21 07:37:20;;;;;;;;;;;;;;;;;;5072456;28;19920;-68
2023/01/21 07:39:46;;;;;;;;;;;;;;;;;;5056356;28;19920;-68
2023/01/21 07:42:11;;;;;;;;;;;;;;;;;;5095000;28;19965;-68
2023/01/21 07:44:37;;;;;;;;;;;-0.80;99.90;;;;;;5076470;28;19969;-68
2023/01/21 07:47:03;;;;;;;;;;;;;;;;;;5076336;28;20324;-69
2023/01/21 07:49:29;;;;;;;;;;;;;;;;;;5076116;28;19927;-69
2023/01/21 07:51:55;;;;;;;;;;;;;;;;;;5065644;28;20355;-68
2023/01/21 07:54:20;;;;;;;;;;;-0.80;99.90;;;;;;5076735;28;19984;-68
2023/01/21 07:56:46;;;;;;;;;;;-0.70;99.90;;;;;;5055902;28;19969;-68
2023/01/21 07:59:12;;;;;;;;;;;;;;;;;;5057338;28;20263;-69
2023/01/21 08:01:38;;;;;;;;;;;;;;;;;;5057044;28;19928;-67
2023/01/21 08:04:05;;;;;;;;;;;;;;;;;;5080296;28;20343;-69
2023/01/21 08:06:31;;;;;;;;;;;-0.60;99.90;;;;;;5060003;28;19931;-68
2023/01/21 08:08:56;;;;;;;;;;;-0.50;99.90;;;;;;5075684;28;19920;-68
2023/01/21 08:11:22;;;;;;;;;;;;;;;;;;5076291;28;19920;-69
2023/01/21 08:13:48;;;;;;;;;;;;;;;;;;5094361;28;20316;-68
2023/01/21 08:16:14;;;;;;;;;;;;;;;;;;5075817;28;19935;-68
2023/01/21 08:18:40;;;;;;;;;;;-0.80;99.90;;;;;;5076412;28;19966;-68
2023/01/21 08:21:05;;;;;;;;;;;-0.50;99.90;;;;;;5076083;28;19926;-68
2023/01/21 08:23:31;;;;;;;;;;;;;;;;;;5092201;28;19927;-68
2023/01/21 08:25:57;;;;;;;;;;;;;;;;;;5076309;28;20396;-67
2023/01/21 08:28:22;;;;;;;;;;;-0.60;99.90;;;;;;5094194;28;19973;-68
2023/01/21 08:30:48;;;;;;;;;;;-0.30;99.90;;;;;;5093938;28;19973;-68
2023/01/21 08:33:14;;;;;;;;;;;;;;;;;;5094651;28;19928;-69
2023/01/21 08:35:40;;;;;;;;;;;;;;;;;;5094090;28;19924;-68
2023/01/21 08:38:06;;;;;;;;;;;;;;;;;;5094482;28;19920;-70
2023/01/21 08:40:32;;;;;;;;;;;;;;;;;;5075891;28;19947;-69
2023/01/21 08:43:01;;;;;;;;;;;-0.10;99.90;;;;;;5075602;28;19927;-68
2023/01/21 08:45:27;;;;;;;;;;;-0.20;99.90;;;;;;5075843;28;19921;-68
2023/01/21 08:47:53;;;;;;;;;;;;;;;;;;5075266;28;19920;-68
2023/01/21 08:50:19;;;;;;;;;;;;;;;;;;5075033;28;20345;-69
2023/01/21 08:52:44;;;;;;;;;;;;;;;;;;5094002;28;19923;-68
2023/01/21 08:55:10;;;;;;;;;;;;;;;;;;5058090;28;19931;-68
2023/01/21 08:57:36;;;;;;;;;;;;;;;;;;5075088;28;19977;-68
2023/01/21 09:00:02;;;;;;;;;;;0.20;99.90;;;;;;5093190;28;20370;-68
2023/01/21 09:02:27;;;;;;;;;;;0.30;99.90;;;;;;5075254;28;20018;-68
2023/01/21 09:04:53;;;;;;;;;;;;;;;;;;5093558;28;20304;-68
2023/01/21 09:07:19;;;;;;;;;;;;;;;;;;5075206;28;19957;-68
2023/01/21 09:09:45;;;;;;;;;;;;;;;;;;5093547;28;19920;-68
2023/01/21 09:12:11;;;;;;;;;;;;;;;;;;5093309;28;19920;-68
2023/01/21 09:14:36;;;;;;;;;;;0.40;99.90;;;;;;5075132;28;19924;-68
2023/01/21 09:17:02;;;;;;;;;;;;;;;;;;5093140;28;19943;-69
2023/01/21 09:19:28;;;;;;;;;;;;;;;;;;5075441;28;19920;-66
2023/01/21 09:21:54;;;;;;;;;;;;;;;;;;5073973;28;19924;-68
2023/01/21 09:24:20;;;;;;;;;;;;;;;;;;5092688;28;20347;-68
2023/01/21 09:26:46;;;;;;;;;;;0.80;99.90;;;;;;5075064;28;19926;-68
2023/01/21 09:29:12;;;;;;;;;;;;;;;;;;5075230;28;19920;-69
2023/01/21 09:31:37;;;;;;;;;;;1.00;99.90;;;;;;5075280;28;20389;-69
2023/01/21 09:34:04;;;;;;;;;;;;;;;;;;5075049;28;19924;-70
2023/01/21 09:36:30;;;;;;;;;;;;;;;;;;5074848;28;19935;-69
2023/01/21 09:38:56;;;;;;;;;;;;;;;;;;5093072;28;19920;-69
2023/01/21 09:41:22;;;;;;;;;;;;;;;;;;5092746;28;20348;-69
2023/01/21 09:43:48;;;;;;;;;;;;;;;;;;5074992;28;19920;-68
2023/01/21 09:46:40;;;;;;;;;;;1.20;99.90;;;;;;5074568;28;20007;-68
2023/01/21 09:49:10;;;;;;;;;;;1.20;99.90;;;;;;5059226;28;19920;-68
2023/01/21 09:51:44;;;;;;;;;;;1.30;99.90;;;;;;5058253;28;20022;-68
2023/01/21 09:54:10;;;;;;;;;;;;;;;;;;5092246;28;19920;-69
2023/01/21 09:56:36;;;;;;;;;;;;;;;;;;5060009;28;19928;-69
2023/01/21 09:59:02;;;;;;;;;;;;;;;;;;5074531;28;20378;-68
2023/01/21 10:01:31;;;;;;;;;;;1.60;99.90;;;;;;5092678;28;19919;-69
2023/01/21 10:04:17;;;;;;;;;;;1.30;99.90;;;;;;5070669;28;19927;-67
2023/01/21 10:06:43;;;;;;;;;;;;;;;;;;5091596;28;19920;-68
2023/01/21 10:09:23;;;;;;;;;;;1.30;99.90;;;;;;5057855;28;19920;-68
2023/01/21 10:11:49;;;;;;;;;;;;;;;;;;5092713;28;19920;-68
2023/01/21 10:14:15;;;;;;;;;;;;;;;;;;5088720;28;19935;-68
2023/01/21 10:16:56;;;;;;;;;;;1.60;99.90;;;;;;5073675;28;20483;-68
2023/01/21 10:19:22;;;;;;;;;;;;;;;;;;5074240;28;19920;-68
2023/01/21 10:21:55;;;;;;;;;;;1.60;99.90;;;;;;5073624;28;19943;-67
2023/01/21 10:24:34;;;;;;;;;;;1.90;99.90;;;;;;5074249;28;19920;-68
2023/01/21 10:27:00;;;;;;;;;;;1.80;99.90;;;;;;5073714;28;19919;-68
2023/01/21 10:29:25;;;;;;;;;;;2.10;99.90;;;;;;5096107;22;20344;-69
2023/01/21 10:32:00;;;;;;;;;;;2.00;99.90;;;;;;5070731;28;19970;-69
2023/01/21 10:34:26;;;;;;;;;;;;;;;;;;5070297;28;20499;-69
2023/01/21 10:36:51;;;;;;;;;;;;;;;;;;5070531;28;20007;-69
2023/01/21 10:39:17;;;;;;;;;;;;;;;;;;5063998;28;19925;-68
2023/01/21 10:41:43;;;;;;;;;;;;;;;;;;5057854;28;20318;-71
2023/01/21 10:44:16;;;;;;;;;;;2.20;99.90;;;;;;5059919;28;20279;-71
2023/01/21 10:46:42;;;;;;;;;;;;;;;;;;5056796;28;19939;-71
2023/01/21 10:49:08;;;;;;;;;;;;;;;;;;5044097;28;19928;-71
2023/01/21 10:51:34;;;;;;;;;;;;;;;;;;5046115;28;19925;-71
2023/01/21 10:54:00;;;;;;;;;;;;;;;;;;5045812;28;20297;-70
2023/01/21 10:56:28;;;;;;;;;;;;;;;;;;5042798;28;19928;-71
2023/01/21 10:58:53;;;;;;;;;;;;;;;;;;5041249;28;19924;-74
2023/01/21 11:01:19;;;;;;;;;;;;;;;;;;5031747;28;19971;-71
2023/01/21 11:03:45;;;;;;;;;;;;;;;;;;5029863;28;20419;-70
2023/01/21 11:06:12;;;;;;;;;;;;;;;;;;5014064;28;19971;-70
2023/01/21 11:08:38;;;;;;;;;;;;;;;;;;5024085;28;19936;-71
2023/01/21 11:11:04;;;;;;;;;;;;;;;;;;5034681;28;19924;-70
2023/01/21 11:13:29;;;;;;;;;;;;;;;;;;5017464;28;20016;-71
2023/01/21 11:15:55;;;;;;;;;;;;;;;;;;5040558;28;19936;-70
2023/01/21 11:18:21;;;;;;;;;;;;;;;;;;5045535;28;19920;-71
2023/01/21 11:20:47;;;;;;;;;;;3.10;99.90;;;;;;5041504;28;19925;-70
2023/01/21 11:23:13;;;;;;;;;;;;;;;;;;5022729;28;20386;-69
2023/01/21 11:25:41;;;;;;;;;;;;;;;;;;5048694;28;19964;-70
2023/01/21 11:28:23;;;;;;;;;;;3.20;99.90;;;;;;5043949;28;19924;-70
2023/01/21 11:30:49;;;;;;;;;;;;;;;;;;5049133;28;20011;-70
2023/01/21 11:33:15;;;;;;;;;;;;;;;;;;5045209;28;20023;-70
2023/01/21 11:35:41;;;;;;;;;;;;;;;;;;5044702;28;20054;-70
2023/01/21 11:38:07;;;;;;;;;;;;;;;;;;5043168;28;19936;-70
2023/01/21 11:40:33;;;;;;;;;;;;;;;;;;5046448;28;19967;-70
2023/01/21 11:42:59;;;;;;;;;;;;;;;;;;5045753;28;20023;-69
2023/01/21 11:45:26;;;;;;;;;;;3.70;99.90;;;;;;5048510;28;19924;-69
2023/01/21 11:47:52;;;;;;;;;;;;;;;;;;5052602;28;20020;-70
2023/01/21 11:50:18;;;;;;;;;;;;;;;;;;5046435;28;19954;-70
2023/01/21 11:52:44;;;;;;;;;;;;;;;;;;5048693;28;19924;-70
2023/01/21 11:55:10;;;;;;;;;;;;;;;;;;5048026;28;19936;-70
2023/01/21 11:57:36;;;;;;;;;;;;;;;;;;5049563;28;19925;-70
2023/01/21 12:00:02;;;;;;;;;;;;;;;;;;5045370;28;19983;-70
2023/01/21 12:02:28;;;;;;;;;;;;;;;;;;5043599;28;19921;-71
2023/01/21 12:04:54;;;;;;;;;;;;;;;;;;5038233;28;20015;-70
2023/01/21 12:07:20;;;;;;;;;;;;;;;;;;5040337;28;20012;-70
2023/01/21 12:09:46;;;;;;;;;;;;;;;;;;5038811;28;19956;-69
2023/01/21 12:12:12;;;;;;;;;;;;;;;;;;5035210;28;19966;-70
2023/01/21 12:14:38;;;;;;;;;;;;;;;;;;5023736;28;19933;-70
2023/01/21 12:17:04;;;;;;;;;;;;;;;;;;5038722;28;19925;-70
2023/01/21 12:19:30;;;;;;;;;;;;;;;;;;5041347;28;20372;-70
2023/01/21 12:21:56;;;;;;;;;;;;;;;;;;5037103;28;19924;-70
2023/01/21 12:24:22;;;;;;;;;;;;;;;;;;5040008;28;20401;-70
2023/01/21 12:26:54;;;;;;;;;;;3.90;99.90;;;;;;5038958;28;19931;-70
2023/01/21 12:29:22;;;;;;;;;;;;;;;;;;5050929;28;21465;-70
2023/01/21 12:31:48;;;;;;;;;;;;;;;;;;5051700;28;19963;-70
2023/01/21 12:34:13;;;;;;;;;;;4.00;99.90;;;;;;5054322;28;19925;-70
2023/01/21 12:36:39;;;;;;;;;;;;;;;;;;5052758;28;19921;-70
2023/01/21 12:39:05;;;;;;;;;;;;;;;;;;5061567;28;19955;-70
2023/01/21 12:41:31;;;;;;;;;;;;;;;;;;5064839;28;20455;-70
2023/01/21 12:44:12;;;;;;;;;;;4.20;99.90;;;;;;5062924;28;19925;-70
2023/01/21 12:46:39;;;;;;;;;;;;;;;;;;5061361;28;19927;-70
2023/01/21 12:49:20;;;;;;;;;;;4.20;99.90;;;;;;5071980;28;19927;-69
2023/01/21 12:51:48;;;;;;;;;;;4.20;99.90;;;;;;5057900;28;20011;-70
2023/01/21 12:54:18;;;;;;;;;;;4.10;99.90;;;;;;5060808;28;19955;-70
2023/01/21 12:56:44;;;;;;;;;;;;;;;;;;5035701;28;19928;-70
2023/01/21 12:59:10;;;;;;;;;;;;;;;;;;5060427;28;19920;-70
2023/01/21 13:01:54;;;;;;;;;;;4.30;99.90;;;;;;5062790;28;20386;-70
2023/01/21 13:04:38;;;;;;;;;;;4.20;99.90;;;;;;5066787;28;19926;-70
2023/01/21 13:07:04;;;;;;;;;;;4.20;99.90;;;;;;5061936;28;19920;-70
2023/01/21 13:09:30;;;;;;;;;;;;;;;;;;5052846;28;19974;-70
2023/01/21 13:11:55;;;;;;;;;;;;;;;;;;5052336;28;19921;-70
2023/01/21 13:14:21;;;;;;;;;;;;;;;;;;5035734;28;19920;-70
2023/01/21 13:16:49;;;;;;;;;;;4.30;99.90;;;;;;5053314;28;19921;-70
2023/01/21 13:19:14;;;;;;;;;;;4.00;99.90;;;;;;5063988;28;19920;-69
2023/01/21 13:21:40;;;;;;;;;;;;;;;;;;5062116;28;19921;-70
2023/01/21 13:24:06;;;;;;;;;;;;;;;;;;5064701;28;19920;-70
2023/01/21 13:26:32;;;;;;;;;;;;;;;;;;5071886;28;20298;-70
2023/01/21 13:28:58;;;;;;;;;;;;;;;;;;5068565;28;19924;-70
2023/01/21 13:31:31;;;;;;;;;;;4.40;99.90;;;;;;5063005;28;19921;-70
2023/01/21 13:33:57;;;;;;;;;;;;;;;;;;5065869;28;19941;-69
2023/01/21 13:36:23;;;;;;;;;;;;;;;;;;5049057;28;19928;-73
2023/01/21 13:38:48;;;;;;;;;;;4.40;99.90;;;;;;5072358;28;19931;-76
2023/01/21 13:41:29;;;;;;;;;;;4.30;99.90;;;;;;5073303;28;19927;-74
2023/01/21 13:44:10;;;;;;;;;;;4.00;99.90;;;;;;5071886;28;19975;-74
2023/01/21 13:46:36;;;;;;;;;;;;;;;;;;5071405;28;19935;-74
2023/01/21 13:49:01;;;;;;;;;;;;;;;;;;5065196;28;19920;-70
2023/01/21 13:51:39;;;;;;;;;;;4.40;99.90;;;;;;5063777;28;19966;-70
2023/01/21 13:54:17;;;;;;;;;;;4.20;99.90;;;;;;5063298;28;20408;-70
2023/01/21 13:56:43;;;;;;;;;;;;;;;;;;5063052;28;19951;-71
2023/01/21 13:59:09;;;;;;;;;;;;;;;;;;5060212;28;20378;-70
2023/01/21 14:01:35;;;;;;;;;;;;;;;;;;5069939;28;20019;-74
2023/01/21 14:04:01;;;;;;;;;;;;;;;;;;5062334;28;19935;-70
2023/01/21 14:06:26;;;;;;;;;;;;;;;;;;5042153;28;20291;-70
2023/01/21 14:09:00;;;;;;;;;;;4.00;99.90;;;;;;5061155;28;19983;-71
2023/01/21 14:11:25;;;;;;;;;;;;;;;;;;5058312;28;19928;-70
2023/01/21 14:13:51;;;;;;;;;;;;;;;;;;5060786;28;20305;-70
2023/01/21 14:16:17;;;;;;;;;;;;;;;;;;5044111;28;19940;-70
2023/01/21 14:18:43;;;;;;;;;;;4.10;99.90;;;;;;5053740;28;19921;-71
2023/01/21 14:21:09;;;;;;;;;;;;;;;;;;5055421;28;19967;-70
2023/01/21 14:23:34;;;;;;;;;;;;;;;;;;5050361;28;19924;-71
2023/01/21 14:26:00;;;;;;;;;;;;;;;;;;5043102;28;19928;-70
2023/01/21 14:28:26;;;;;;;;;;;;;;;;;;5045677;28;19967;-71
2023/01/21 14:30:52;;;;;;;;;;;;;;;;;;5037327;28;19936;-71
2023/01/21 14:33:18;;;;;;;;;;;;;;;;;;5046126;28;19928;-71
2023/01/21 14:35:44;;;;;;;;;;;;;;;;;;5046616;28;19929;-71
2023/01/21 14:38:10;;;;;;;;;;;;;;;;;;5048547;28;20034;-71
2023/01/21 14:40:42;;;;;;;;;;;4.10;99.90;;;;;;5047422;28;19978;-72
2023/01/21 14:43:08;;;;;;;;;;;;;;;;;;5053668;28;19963;-71
2023/01/21 14:45:34;;;;;;;;;;;;;;;;;;5050542;28;19952;-72
2023/01/21 14:48:20;;;;;;;;;;;4.10;99.90;;;;;;5049849;28;19960;-71
2023/01/21 14:50:46;;;;;;;;;;;;;;;;;;5049682;28;19920;-71
2023/01/21 14:53:19;;;;;;;;;;;3.80;99.90;;;;;;5052033;28;19921;-71
2023/01/21 14:55:45;;;;;;;;;;;3.80;99.90;;;;;;5048027;28;19932;-71
2023/01/21 14:58:11;;;;;;;;;;;;;;;;;;5063513;28;19920;-71
2023/01/21 15:00:36;;;;;;;;;;;;;;;;;;5056324;28;20018;-70
2023/01/21 15:03:02;;;;;;;;;;;;;;;;;;5032408;28;19921;-74
2023/01/21 15:05:31;;;;;;;;;;;4.00;99.90;;;;;;5049978;28;20386;-72
2023/01/21 15:07:57;;;;;;;;;;;;;;;;;;5051988;28;19921;-71
2023/01/21 15:10:23;;;;;;;;;;;;;;;;;;5049535;28;19921;-71
2023/01/21 15:12:49;;;;;;;;;;;;;;;;;;5049831;28;19929;-69
2023/01/21 15:15:29;;;;;;;;;;;3.90;99.90;;;;;;5051062;28;19924;-71
2023/01/21 15:17:56;;;;;;;;;;;;;;;;;;5033873;28;19944;-70
2023/01/21 15:20:22;;;;;;;;;;;;;;;;;;5052458;28;19931;-71
2023/01/21 15:22:48;;;;;;;;;;;;;;;;;;5054421;28;19921;-71
2023/01/21 15:25:14;;;;;;;;;;;;;;;;;;5054306;28;19928;-71
2023/01/21 15:27:39;;;;;;;;;;;3.70;99.90;;;;;;5054704;28;19975;-71
2023/01/21 15:30:05;;;;;;;;;;;3.50;99.90;;;;;;5055492;28;19975;-71
2023/01/21 15:32:31;;;;;;;;;;;;;;;;;;5054782;28;19971;-71
2023/01/21 15:34:57;;;;;;;;;;;;;;;;;;5054167;28;20012;-71
2023/01/21 15:37:22;;;;;;;;;;;;;;;;;;5055321;28;19993;-71
2023/01/21 15:39:52;;;;;;;;;;;3.30;99.90;;;;;;5053979;28;19921;-71
2023/01/21 15:42:18;;;;;;;;;;;;;;;;;;5037745;28;19921;-71
2023/01/21 15:44:44;;;;;;;;;;;;;;;;;;5053953;28;19964;-71
2023/01/21 15:47:09;;;;;;;;;;;;;;;;;;5053870;28;19920;-71
2023/01/21 15:49:35;;;;;;;;;;;;;;;;;;5037165;28;20405;-71
2023/01/21 15:52:20;;;;;;;;;;;3.20;99.90;;;;;;5053943;28;19921;-71
2023/01/21 15:54:46;;;;;;;;;;;;;;;;;;5053736;28;20012;-71
2023/01/21 15:57:30;;;;;;;;;;;2.80;99.90;;;;;;5053548;28;19975;-71
2023/01/21 15:59:58;;;;;;;;;;;3.00;99.90;;;;;;5053730;28;19924;-71
2023/01/21 16:02:24;;;;;;;;;;;;;;;;;;5037353;28;20032;-71
2023/01/21 16:05:05;;;;;;;;;;;2.70;99.90;;;;;;5053380;28;19995;-70
2023/01/21 16:07:31;;;;;;;;;;;;;;;;;;5054539;28;19975;-70
2023/01/21 16:09:57;;;;;;;;;;;;;;;;;;5051370;28;19960;-70
2023/01/21 16:12:23;;;;;;;;;;;;;;;;;;5052350;28;20438;-70